sensor_id;sensor_type;location;lat;lon;timestamp;pressure;altitude;pressure_sealevel;temperature;humidity
13553;BME280;6847;48.830;9.116;2024-03-25T00:01:08;97179.56;;;8.84;75.77
13553;BME280;6847;48.830;9.116;2024-03-25T00:03:38;97184.16;;;8.83;76.08
13553;BME280;6847;48.830;9.116;2024-03-25T00:15:05;97181.75;;;8.82;75.56
13553;BME280;6847;48.830;9.116;2024-03-25T00:17:54;97178.56;;;8.80;75.92
13553;BME280;6847;48.830;9.116;2024-03-25T00:20:38;97180.72;;;8.78;75.42
13553;BME280;6847;48.830;9.116;2024-03-25T00:23:10;97177.22;;;8.77;75.74
13553;BME280;6847;48.830;9.116;2024-03-25T00:25:44;97171.28;;;8.75;75.80
13553;BME280;6847;48.830;9.116;2024-03-25T00:28:21;97172.09;;;8.76;75.44
13553;BME280;6847;48.830;9.116;2024-03-25T00:39:26;97173.25;;;8.65;75.04
13553;BME280;6847;48.830;9.116;2024-03-25T00:42:05;97167.91;;;8.60;75.38
13553;BME280;6847;48.830;9.116;2024-03-25T00:44:50;97176.03;;;8.54;75.46
13553;BME280;6847;48.830;9.116;2024-03-25T00:47:32;97170.41;;;8.51;75.11
13553;BME280;6847;48.830;9.116;2024-03-25T00:50:02;97174.50;;;8.43;75.66
13553;BME280;6847;48.830;9.116;2024-03-25T00:52:30;97175.09;;;8.40;75.53
13553;BME280;6847;48.830;9.116;2024-03-25T00:54:59;97177.78;;;8.35;75.34
13553;BME280;6847;48.830;9.116;2024-03-25T00:57:25;97171.38;;;8.31;75.31
13553;BME280;6847;48.830;9.116;2024-03-25T00:59:52;97170.28;;;8.27;75.64
13553;BME280;6847;48.830;9.116;2024-03-25T01:02:18;97172.72;;;8.24;75.46
13553;BME280;6847;48.830;9.116;2024-03-25T01:04:45;97164.41;;;8.20;75.09
13553;BME280;6847;48.830;9.116;2024-03-25T01:07:11;97161.16;;;8.18;75.68
13553;BME280;6847;48.830;9.116;2024-03-25T01:09:37;97164.13;;;8.16;75.47
13553;BME280;6847;48.830;9.116;2024-03-25T01:12:05;97160.34;;;8.17;75.39
13553;BME280;6847;48.830;9.116;2024-03-25T01:14:31;97158.75;;;8.16;75.61
13553;BME280;6847;48.830;9.116;2024-03-25T01:16:57;97154.16;;;8.17;75.05
13553;BME280;6847;48.830;9.116;2024-03-25T01:19:23;97152.00;;;8.19;75.59
13553;BME280;6847;48.830;9.116;2024-03-25T01:21:52;97152.00;;;8.19;75.26
13553;BME280;6847;48.830;9.116;2024-03-25T01:24:18;97148.22;;;8.20;75.46
13553;BME280;6847;48.830;9.116;2024-03-25T01:26:45;97149.31;;;8.19;75.37
13553;BME280;6847;48.830;9.116;2024-03-25T01:29:14;97148.78;;;8.17;75.29
13553;BME280;6847;48.830;9.116;2024-03-25T01:31:40;97145.25;;;8.16;74.73
13553;BME280;6847;48.830;9.116;2024-03-25T01:34:07;97143.94;;;8.14;75.07
13553;BME280;6847;48.830;9.116;2024-03-25T01:36:33;97139.63;;;8.13;74.74
13553;BME280;6847;48.830;9.116;2024-03-25T01:39:01;97136.69;;;8.09;75.37
13553;BME280;6847;48.830;9.116;2024-03-25T01:41:26;97135.34;;;8.07;74.97
13553;BME280;6847;48.830;9.116;2024-03-25T01:43:53;97141.28;;;8.04;74.91
13553;BME280;6847;48.830;9.116;2024-03-25T01:46:21;97146.19;;;8.02;75.16
13553;BME280;6847;48.830;9.116;2024-03-25T01:48:50;97139.19;;;8.01;75.04
13553;BME280;6847;48.830;9.116;2024-03-25T01:51:18;97148.06;;;8.01;74.80
13553;BME280;6847;48.830;9.116;2024-03-25T01:53:46;97151.56;;;8.02;74.91
13553;BME280;6847;48.830;9.116;2024-03-25T01:56:12;97160.75;;;8.01;74.89
13553;BME280;6847;48.830;9.116;2024-03-25T01:58:39;97153.72;;;8.00;75.37
13553;BME280;6847;48.830;9.116;2024-03-25T02:01:08;97154.53;;;8.00;74.90
13553;BME280;6847;48.830;9.116;2024-03-25T02:03:40;97149.69;;;7.97;75.16
13553;BME280;6847;48.830;9.116;2024-03-25T02:06:07;97155.91;;;7.98;74.92
13553;BME280;6847;48.830;9.116;2024-03-25T02:08:35;97155.34;;;8.01;75.35
13553;BME280;6847;48.830;9.116;2024-03-25T02:11:01;97156.38;;;8.05;75.46
13553;BME280;6847;48.830;9.116;2024-03-25T02:13:28;97149.38;;;8.09;75.47
13553;BME280;6847;48.830;9.116;2024-03-25T02:15:55;97154.22;;;8.12;75.41
13553;BME280;6847;48.830;9.116;2024-03-25T02:18:21;97150.13;;;8.14;75.08
13553;BME280;6847;48.830;9.116;2024-03-25T02:20:48;97152.00;;;8.19;75.49
13553;BME280;6847;48.830;9.116;2024-03-25T02:23:15;97151.44;;;8.22;75.42
13553;BME280;6847;48.830;9.116;2024-03-25T02:25:42;97153.84;;;8.24;75.24
13553;BME280;6847;48.830;9.116;2024-03-25T02:28:10;97150.88;;;8.25;75.36
13553;BME280;6847;48.830;9.116;2024-03-25T02:30:36;97147.09;;;8.26;75.53
13553;BME280;6847;48.830;9.116;2024-03-25T02:33:03;97142.50;;;8.27;75.29
13553;BME280;6847;48.830;9.116;2024-03-25T02:35:29;97137.91;;;8.27;75.45
13553;BME280;6847;48.830;9.116;2024-03-25T02:37:56;97136.56;;;8.30;75.43
13553;BME280;6847;48.830;9.116;2024-03-25T02:40:21;97137.63;;;8.34;75.78
13553;BME280;6847;48.830;9.116;2024-03-25T02:42:48;97136.25;;;8.36;75.35
13553;BME280;6847;48.830;9.116;2024-03-25T02:45:15;97144.88;;;8.38;75.27
13553;BME280;6847;48.830;9.116;2024-03-25T02:47:42;97143.53;;;8.41;75.09
13553;BME280;6847;48.830;9.116;2024-03-25T02:50:08;97143.75;;;8.44;75.87
13553;BME280;6847;48.830;9.116;2024-03-25T02:52:35;97141.03;;;8.49;75.76
13553;BME280;6847;48.830;9.116;2024-03-25T02:57:48;97140.41;;;8.58;76.00
13553;BME280;6847;48.830;9.116;2024-03-25T03:00:16;97143.38;;;8.61;76.02
13553;BME280;6847;48.830;9.116;2024-03-25T03:02:43;97147.91;;;8.66;75.74
13553;BME280;6847;48.830;9.116;2024-03-25T03:05:09;97143.03;;;8.68;75.34
13553;BME280;6847;48.830;9.116;2024-03-25T03:07:35;97134.88;;;8.73;75.60
13553;BME280;6847;48.830;9.116;2024-03-25T03:10:01;97138.91;;;8.75;75.63
13553;BME280;6847;48.830;9.116;2024-03-25T03:12:27;97142.94;;;8.78;75.95
13553;BME280;6847;48.830;9.116;2024-03-25T03:14:55;97143.47;;;8.80;75.80
13553;BME280;6847;48.830;9.116;2024-03-25T03:17:26;97142.38;;;8.81;75.88
13553;BME280;6847;48.830;9.116;2024-03-25T03:19:52;97139.91;;;8.84;75.68
13553;BME280;6847;48.830;9.116;2024-03-25T03:22:18;97141.22;;;8.87;74.64
13553;BME280;6847;48.830;9.116;2024-03-25T03:24:47;97132.06;;;8.88;75.63
13553;BME280;6847;48.830;9.116;2024-03-25T03:27:13;97132.84;;;8.88;74.75
13553;BME280;6847;48.830;9.116;2024-03-25T03:29:40;97130.44;;;8.87;74.89
13553;BME280;6847;48.830;9.116;2024-03-25T03:32:06;97122.69;;;8.80;74.81
13553;BME280;6847;48.830;9.116;2024-03-25T03:34:37;97127.84;;;8.77;74.89
13553;BME280;6847;48.830;9.116;2024-03-25T03:37:03;97122.19;;;8.73;74.89
13553;BME280;6847;48.830;9.116;2024-03-25T03:39:29;97130.88;;;8.70;74.84
13553;BME280;6847;48.830;9.116;2024-03-25T03:41:54;97126.03;;;8.67;74.75
13553;BME280;6847;48.830;9.116;2024-03-25T03:44:21;97126.31;;;8.66;75.04
13553;BME280;6847;48.830;9.116;2024-03-25T03:46:48;97127.91;;;8.67;74.82
13553;BME280;6847;48.830;9.116;2024-03-25T03:49:20;97134.41;;;8.66;75.31
13553;BME280;6847;48.830;9.116;2024-03-25T03:51:47;97128.47;;;8.64;74.73
13553;BME280;6847;48.830;9.116;2024-03-25T03:54:13;97128.53;;;8.59;74.90
13553;BME280;6847;48.830;9.116;2024-03-25T03:56:40;97139.59;;;8.57;74.83
13553;BME280;6847;48.830;9.116;2024-03-25T03:59:07;97131.84;;;8.50;74.78
13553;BME280;6847;48.830;9.116;2024-03-25T04:01:32;97141.31;;;8.48;74.77
13553;BME280;6847;48.830;9.116;2024-03-25T04:03:58;97142.13;;;8.43;75.09
13553;BME280;6847;48.830;9.116;2024-03-25T04:06:25;97150.81;;;8.40;75.03
13553;BME280;6847;48.830;9.116;2024-03-25T04:08:54;97148.66;;;8.37;75.04
13553;BME280;6847;48.830;9.116;2024-03-25T04:11:19;97164.84;;;8.37;75.43
13553;BME280;6847;48.830;9.116;2024-03-25T04:13:46;97151.09;;;8.39;74.93
13553;BME280;6847;48.830;9.116;2024-03-25T04:16:12;97154.31;;;8.41;75.36
13553;BME280;6847;48.830;9.116;2024-03-25T04:18:38;97154.00;;;8.42;75.30
13553;BME280;6847;48.830;9.116;2024-03-25T04:21:11;97156.16;;;8.45;75.13
13553;BME280;6847;48.830;9.116;2024-03-25T04:23:37;97153.19;;;8.47;74.69
13553;BME280;6847;48.830;9.116;2024-03-25T04:26:05;97146.16;;;8.46;75.05
13553;BME280;6847;48.830;9.116;2024-03-25T04:28:34;97133.75;;;8.45;74.83
13553;BME280;6847;48.830;9.116;2024-03-25T04:31:00;97143.75;;;8.44;74.64
13553;BME280;6847;48.830;9.116;2024-03-25T04:33:26;97142.94;;;8.44;75.24
13553;BME280;6847;48.830;9.116;2024-03-25T04:35:52;97132.97;;;8.44;74.69
13553;BME280;6847;48.830;9.116;2024-03-25T04:38:20;97136.19;;;8.46;75.45
13553;BME280;6847;48.830;9.116;2024-03-25T04:40:46;97140.78;;;8.46;75.10
13553;BME280;6847;48.830;9.116;2024-03-25T04:43:13;97142.13;;;8.43;75.06
13553;BME280;6847;48.830;9.116;2024-03-25T04:45:39;97134.84;;;8.44;74.41
13553;BME280;6847;48.830;9.116;2024-03-25T04:48:05;97148.34;;;8.44;74.40
13553;BME280;6847;48.830;9.116;2024-03-25T04:50:30;97144.31;;;8.41;74.94
13553;BME280;6847;48.830;9.116;2024-03-25T04:52:56;97146.50;;;8.39;75.13
13553;BME280;6847;48.830;9.116;2024-03-25T04:55:22;97151.34;;;8.37;75.22
13553;BME280;6847;48.830;9.116;2024-03-25T04:57:48;97153.53;;;8.35;74.75
13553;BME280;6847;48.830;9.116;2024-03-25T05:00:17;97140.63;;;8.32;74.56
13553;BME280;6847;48.830;9.116;2024-03-25T05:02:44;97154.09;;;8.27;74.92
13553;BME280;6847;48.830;9.116;2024-03-25T05:05:15;97143.34;;;8.22;74.59
13553;BME280;6847;48.830;9.116;2024-03-25T05:07:41;97145.00;;;8.18;74.66
13553;BME280;6847;48.830;9.116;2024-03-25T05:10:08;97139.13;;;8.11;74.51
13553;BME280;6847;48.830;9.116;2024-03-25T05:12:33;97149.63;;;8.07;74.49
13553;BME280;6847;48.830;9.116;2024-03-25T05:14:59;97137.56;;;8.00;74.54
13553;BME280;6847;48.830;9.116;2024-03-25T05:17:28;97143.50;;;7.97;75.02
13553;BME280;6847;48.830;9.116;2024-03-25T05:19:53;97160.22;;;7.94;74.53
13553;BME280;6847;48.830;9.116;2024-03-25T05:22:19;97153.78;;;7.90;74.79
13553;BME280;6847;48.830;9.116;2024-03-25T05:24:44;97153.81;;;7.85;74.70
13553;BME280;6847;48.830;9.116;2024-03-25T05:27:10;97157.06;;;7.82;75.08
13553;BME280;6847;48.830;9.116;2024-03-25T05:29:36;97158.41;;;7.79;74.73
13553;BME280;6847;48.830;9.116;2024-03-25T05:32:01;97163.53;;;7.75;74.63
13553;BME280;6847;48.830;9.116;2024-03-25T05:34:29;97161.66;;;7.76;75.15
13553;BME280;6847;48.830;9.116;2024-03-25T05:36:54;97166.22;;;7.80;75.02
13553;BME280;6847;48.830;9.116;2024-03-25T05:39:20;97158.69;;;7.83;74.61
13553;BME280;6847;48.830;9.116;2024-03-25T05:41:47;97171.03;;;7.89;74.87
13553;BME280;6847;48.830;9.116;2024-03-25T05:44:14;97169.41;;;7.93;75.02
13553;BME280;6847;48.830;9.116;2024-03-25T05:46:40;97162.09;;;7.98;74.96
13553;BME280;6847;48.830;9.116;2024-03-25T05:49:07;97170.94;;;8.04;75.21
13553;BME280;6847;48.830;9.116;2024-03-25T05:51:34;97176.59;;;8.12;74.89
13553;BME280;6847;48.830;9.116;2024-03-25T05:54:00;97176.22;;;8.24;75.05
13553;BME280;6847;48.830;9.116;2024-03-25T05:56:27;97130.81;;;8.02;75.07
13553;BME280;6847;48.830;9.116;2024-03-25T05:58:54;97173.94;;;8.46;74.75
13553;BME280;6847;48.830;9.116;2024-03-25T06:01:20;97180.31;;;8.61;75.41
13553;BME280;6847;48.830;9.116;2024-03-25T06:03:47;97172.16;;;8.71;74.92
13553;BME280;6847;48.830;9.116;2024-03-25T06:06:15;97172.09;;;8.76;75.09
13553;BME280;6847;48.830;9.116;2024-03-25T06:08:43;97163.66;;;8.82;75.14
13553;BME280;6847;48.830;9.116;2024-03-25T06:11:08;97160.66;;;8.89;74.75
13553;BME280;6847;48.830;9.116;2024-03-25T06:13:34;97176.78;;;8.94;74.49
13553;BME280;6847;48.830;9.116;2024-03-25T06:15:59;97167.59;;;8.95;74.45
13553;BME280;6847;48.830;9.116;2024-03-25T06:18:25;97167.13;;;8.88;74.44
13553;BME280;6847;48.830;9.116;2024-03-25T06:20:51;97166.66;;;8.81;74.14
13553;BME280;6847;48.830;9.116;2024-03-25T06:23:23;97164.28;;;8.74;74.13
13553;BME280;6847;48.830;9.116;2024-03-25T06:25:51;97162.44;;;8.70;74.46
13553;BME280;6847;48.830;9.116;2024-03-25T06:28:16;97164.06;;;8.71;74.78
13553;BME280;6847;48.830;9.116;2024-03-25T06:30:42;97174.78;;;8.76;74.85
13553;BME280;6847;48.830;9.116;2024-03-25T06:33:27;97169.94;;;8.78;74.25
13553;BME280;6847;48.830;9.116;2024-03-25T06:36:11;97173.16;;;8.80;75.21
13553;BME280;6847;48.830;9.116;2024-03-25T06:38:37;97167.16;;;8.83;74.95
13553;BME280;6847;48.830;9.116;2024-03-25T06:41:04;97169.84;;;8.88;75.10
13553;BME280;6847;48.830;9.116;2024-03-25T06:43:30;97175.69;;;8.95;75.59
13553;BME280;6847;48.830;9.116;2024-03-25T06:45:56;97171.81;;;9.06;75.41
13553;BME280;6847;48.830;9.116;2024-03-25T06:48:21;97177.66;;;9.18;75.55
13553;BME280;6847;48.830;9.116;2024-03-25T06:50:53;97176.38;;;9.35;75.66
13553;BME280;6847;48.830;9.116;2024-03-25T06:53:19;97185.88;;;9.56;75.62
13553;BME280;6847;48.830;9.116;2024-03-25T06:55:50;97192.19;;;9.70;75.42
13553;BME280;6847;48.830;9.116;2024-03-25T06:58:17;97197.47;;;9.80;75.16
13553;BME280;6847;48.830;9.116;2024-03-25T07:00:43;97192.25;;;9.89;75.61
13553;BME280;6847;48.830;9.116;2024-03-25T07:03:09;97194.38;;;9.92;75.48
13553;BME280;6847;48.830;9.116;2024-03-25T07:05:35;97195.41;;;9.96;75.29
13553;BME280;6847;48.830;9.116;2024-03-25T07:08:01;97195.84;;;10.03;75.74
13553;BME280;6847;48.830;9.116;2024-03-25T07:10:28;97199.31;;;10.09;75.20
13553;BME280;6847;48.830;9.116;2024-03-25T07:13:00;97194.34;;;10.16;76.07
13553;BME280;6847;48.830;9.116;2024-03-25T07:15:33;97195.81;;;10.64;76.91
13553;BME280;6847;48.830;9.116;2024-03-25T07:17:58;97197.53;;;12.71;72.07
13553;BME280;6847;48.830;9.116;2024-03-25T07:20:25;97196.91;;;14.80;67.79
13553;BME280;6847;48.830;9.116;2024-03-25T07:22:51;97202.56;;;16.61;64.24
13553;BME280;6847;48.830;9.116;2024-03-25T07:25:17;97200.28;;;18.07;60.79
13553;BME280;6847;48.830;9.116;2024-03-25T07:27:44;97209.19;;;19.21;58.65
13553;BME280;6847;48.830;9.116;2024-03-25T07:30:12;97199.50;;;20.14;56.74
13553;BME280;6847;48.830;9.116;2024-03-25T07:32:39;97194.63;;;20.58;55.79
13553;BME280;6847;48.830;9.116;2024-03-25T07:35:05;97211.75;;;21.22;55.07
13553;BME280;6847;48.830;9.116;2024-03-25T07:37:30;97196.34;;;21.40;54.04
13553;BME280;6847;48.830;9.116;2024-03-25T07:39:57;97200.78;;;21.67;53.96
13553;BME280;6847;48.830;9.116;2024-03-25T07:42:23;97201.66;;;22.17;53.55
13553;BME280;6847;48.830;9.116;2024-03-25T07:44:48;97199.34;;;22.72;53.24
13553;BME280;6847;48.830;9.116;2024-03-25T07:47:14;97196.94;;;23.60;52.62
13553;BME280;6847;48.830;9.116;2024-03-25T07:49:42;97198.09;;;24.47;51.66
13553;BME280;6847;48.830;9.116;2024-03-25T07:52:07;97197.63;;;25.00;50.76
13553;BME280;6847;48.830;9.116;2024-03-25T07:54:34;97199.38;;;25.43;50.35
13553;BME280;6847;48.830;9.116;2024-03-25T07:57:00;97203.41;;;25.60;50.27
13553;BME280;6847;48.830;9.116;2024-03-25T07:59:29;97206.59;;;25.69;49.80
13553;BME280;6847;48.830;9.116;2024-03-25T08:01:55;97217.00;;;26.40;49.90
13553;BME280;6847;48.830;9.116;2024-03-25T08:04:20;97211.38;;;26.82;49.59
13553;BME280;6847;48.830;9.116;2024-03-25T08:06:47;97214.13;;;26.89;48.95
13553;BME280;6847;48.830;9.116;2024-03-25T08:09:13;97221.69;;;27.00;48.82
13553;BME280;6847;48.830;9.116;2024-03-25T08:11:38;97211.25;;;27.29;49.82
13553;BME280;6847;48.830;9.116;2024-03-25T08:14:04;97211.16;;;27.46;50.61
13553;BME280;6847;48.830;9.116;2024-03-25T08:16:30;97211.13;;;27.60;50.31
13553;BME280;6847;48.830;9.116;2024-03-25T08:18:56;97206.94;;;27.97;49.88
13553;BME280;6847;48.830;9.116;2024-03-25T08:21:22;97201.25;;;28.18;48.64
13553;BME280;6847;48.830;9.116;2024-03-25T08:23:49;97206.16;;;27.06;51.20
13553;BME280;6847;48.830;9.116;2024-03-25T08:26:16;97202.69;;;24.87;52.77
13553;BME280;6847;48.830;9.116;2024-03-25T08:28:42;97194.38;;;22.81;54.31
13553;BME280;6847;48.830;9.116;2024-03-25T08:31:08;97198.53;;;21.12;56.52
13553;BME280;6847;48.830;9.116;2024-03-25T08:33:33;97179.56;;;19.86;58.90
13553;BME280;6847;48.830;9.116;2024-03-25T08:36:00;97184.63;;;18.84;61.07
13553;BME280;6847;48.830;9.116;2024-03-25T08:38:26;97180.31;;;18.19;62.89
13553;BME280;6847;48.830;9.116;2024-03-25T08:40:53;97181.22;;;19.31;64.02
13553;BME280;6847;48.830;9.116;2024-03-25T08:43:19;97188.09;;;20.82;60.67
13553;BME280;6847;48.830;9.116;2024-03-25T08:45:45;97187.66;;;20.80;59.57
13553;BME280;6847;48.830;9.116;2024-03-25T08:48:10;97180.94;;;20.43;60.17
13553;BME280;6847;48.830;9.116;2024-03-25T08:50:36;97175.13;;;19.66;60.82
13553;BME280;6847;48.830;9.116;2024-03-25T08:53:02;97171.28;;;19.11;61.51
13553;BME280;6847;48.830;9.116;2024-03-25T08:55:28;97163.81;;;18.43;62.39
13553;BME280;6847;48.830;9.116;2024-03-25T08:57:55;97165.44;;;17.84;63.62
13553;BME280;6847;48.830;9.116;2024-03-25T09:00:22;97163.41;;;17.23;64.58
13553;BME280;6847;48.830;9.116;2024-03-25T09:02:47;97162.75;;;16.73;65.18
13553;BME280;6847;48.830;9.116;2024-03-25T09:05:15;97154.19;;;16.33;66.24
13553;BME280;6847;48.830;9.116;2024-03-25T09:07:40;97153.16;;;16.67;66.90
13553;BME280;6847;48.830;9.116;2024-03-25T09:10:06;97151.72;;;18.84;65.40
13553;BME280;6847;48.830;9.116;2024-03-25T09:12:52;97156.31;;;21.46;61.46
13553;BME280;6847;48.830;9.116;2024-03-25T09:15:19;97152.22;;;23.17;58.91
13553;BME280;6847;48.830;9.116;2024-03-25T09:17:45;97159.38;;;24.54;56.74
13553;BME280;6847;48.830;9.116;2024-03-25T09:20:11;97156.47;;;24.95;55.21
13553;BME280;6847;48.830;9.116;2024-03-25T09:22:42;97162.72;;;24.85;55.13
13553;BME280;6847;48.830;9.116;2024-03-25T09:25:09;97159.69;;;25.11;55.19
13553;BME280;6847;48.830;9.116;2024-03-25T09:27:35;97165.41;;;26.25;54.02
13553;BME280;6847;48.830;9.116;2024-03-25T09:30:02;97157.91;;;27.58;51.66
13553;BME280;6847;48.830;9.116;2024-03-25T09:32:30;97153.34;;;28.75;50.38
13553;BME280;6847;48.830;9.116;2024-03-25T09:34:55;97148.81;;;29.56;50.13
13553;BME280;6847;48.830;9.116;2024-03-25T09:37:21;97144.16;;;30.00;47.63
13553;BME280;6847;48.830;9.116;2024-03-25T09:39:48;97108.00;;;30.16;47.67
13553;BME280;6847;48.830;9.116;2024-03-25T09:42:14;97146.22;;;30.66;46.78
13553;BME280;6847;48.830;9.116;2024-03-25T09:44:39;97145.56;;;30.58;46.58
13553;BME280;6847;48.830;9.116;2024-03-25T09:47:05;97138.78;;;30.79;46.53
13553;BME280;6847;48.830;9.116;2024-03-25T09:49:33;97129.75;;;30.91;45.97
13553;BME280;6847;48.830;9.116;2024-03-25T09:52:03;97137.56;;;30.60;45.84
13553;BME280;6847;48.830;9.116;2024-03-25T09:54:31;97129.94;;;29.91;45.43
13553;BME280;6847;48.830;9.116;2024-03-25T09:56:57;97122.16;;;29.21;45.43
13553;BME280;6847;48.830;9.116;2024-03-25T09:59:23;97122.47;;;28.96;47.68
13553;BME280;6847;48.830;9.116;2024-03-25T10:01:49;97118.56;;;29.51;49.05
13553;BME280;6847;48.830;9.116;2024-03-25T10:04:15;97079.50;;;30.05;49.20
13553;BME280;6847;48.830;9.116;2024-03-25T10:06:42;97113.78;;;30.48;48.00
13553;BME280;6847;48.830;9.116;2024-03-25T10:09:09;97109.69;;;30.10;46.08
13553;BME280;6847;48.830;9.116;2024-03-25T10:11:36;97106.53;;;30.55;47.32
13553;BME280;6847;48.830;9.116;2024-03-25T10:14:03;96956.25;;;30.26;47.81
13553;BME280;6847;48.830;9.116;2024-03-25T10:16:30;97087.63;;;31.74;48.39
13553;BME280;6847;48.830;9.116;2024-03-25T10:18:56;97079.69;;;32.21;48.61
13553;BME280;6847;48.830;9.116;2024-03-25T10:21:21;97023.13;;;32.10;49.09
13553;BME280;6847;48.830;9.116;2024-03-25T10:23:51;97077.94;;;32.56;48.73
13553;BME280;6847;48.830;9.116;2024-03-25T10:26:26;97069.75;;;32.61;48.35
13553;BME280;6847;48.830;9.116;2024-03-25T10:29:00;97066.41;;;31.24;46.37
13553;BME280;6847;48.830;9.116;2024-03-25T10:31:28;97052.88;;;30.63;46.66
13553;BME280;6847;48.830;9.116;2024-03-25T10:33:53;97058.31;;;30.70;46.90
13553;BME280;6847;48.830;9.116;2024-03-25T10:36:19;97052.72;;;30.70;46.56
13553;BME280;6847;48.830;9.116;2024-03-25T10:38:46;97059.44;;;29.87;45.98
13553;BME280;6847;48.830;9.116;2024-03-25T10:41:18;97045.31;;;28.59;48.11
13553;BME280;6847;48.830;9.116;2024-03-25T10:43:45;97041.16;;;27.99;49.88
13553;BME280;6847;48.830;9.116;2024-03-25T10:46:11;97044.56;;;27.21;51.58
13553;BME280;6847;48.830;9.116;2024-03-25T10:48:38;97032.31;;;27.05;53.14
13553;BME280;6847;48.830;9.116;2024-03-25T10:51:06;97043.00;;;26.01;54.72
13553;BME280;6847;48.830;9.116;2024-03-25T10:53:32;97036.13;;;24.82;56.93
13553;BME280;6847;48.830;9.116;2024-03-25T10:56:03;97033.81;;;23.53;57.72
13553;BME280;6847;48.830;9.116;2024-03-25T10:58:30;97020.06;;;22.45;59.10
13553;BME280;6847;48.830;9.116;2024-03-25T11:00:57;97018.88;;;21.60;60.49
13553;BME280;6847;48.830;9.116;2024-03-25T11:03:25;97025.28;;;20.99;61.77
13553;BME280;6847;48.830;9.116;2024-03-25T11:05:54;97025.50;;;20.49;62.40
13553;BME280;6847;48.830;9.116;2024-03-25T11:08:29;97025.25;;;20.00;62.27
13553;BME280;6847;48.830;9.116;2024-03-25T11:10:55;97020.47;;;19.62;63.02
13553;BME280;6847;48.830;9.116;2024-03-25T11:13:23;97009.22;;;19.35;63.47
13553;BME280;6847;48.830;9.116;2024-03-25T11:15:56;97000.28;;;19.38;63.96
13553;BME280;6847;48.830;9.116;2024-03-25T11:18:24;96995.41;;;20.56;63.61
13553;BME280;6847;48.830;9.116;2024-03-25T11:20:59;96994.19;;;21.41;61.86
13553;BME280;6847;48.830;9.116;2024-03-25T11:23:25;96985.38;;;22.11;60.84
13553;BME280;6847;48.830;9.116;2024-03-25T11:25:54;96994.19;;;23.35;60.12
13553;BME280;6847;48.830;9.116;2024-03-25T11:28:26;96988.72;;;24.94;59.26
13553;BME280;6847;48.830;9.116;2024-03-25T11:30:53;96989.09;;;26.09;56.74
13553;BME280;6847;48.830;9.116;2024-03-25T11:33:18;96973.97;;;27.12;55.77
13553;BME280;6847;48.830;9.116;2024-03-25T11:35:44;96974.72;;;28.02;55.52
13553;BME280;6847;48.830;9.116;2024-03-25T11:38:09;96978.78;;;28.65;54.67
13553;BME280;6847;48.830;9.116;2024-03-25T11:40:35;96966.75;;;28.04;53.92
13553;BME280;6847;48.830;9.116;2024-03-25T11:43:00;96963.97;;;26.52;55.78
13553;BME280;6847;48.830;9.116;2024-03-25T11:45:26;96959.47;;;25.14;57.46
13553;BME280;6847;48.830;9.116;2024-03-25T11:47:53;96947.28;;;24.11;59.28
13553;BME280;6847;48.830;9.116;2024-03-25T11:50:19;96948.88;;;24.05;60.21
13553;BME280;6847;48.830;9.116;2024-03-25T11:52:46;96934.81;;;24.38;59.97
13553;BME280;6847;48.830;9.116;2024-03-25T11:55:15;96933.44;;;23.96;59.86
13553;BME280;6847;48.830;9.116;2024-03-25T11:57:41;96917.38;;;23.03;60.28
13553;BME280;6847;48.830;9.116;2024-03-25T12:00:08;96916.19;;;22.23;61.51
13553;BME280;6847;48.830;9.116;2024-03-25T12:02:34;96913.34;;;22.12;62.67
13553;BME280;6847;48.830;9.116;2024-03-25T12:05:07;96905.78;;;21.79;62.78
13553;BME280;6847;48.830;9.116;2024-03-25T12:07:33;96910.63;;;21.30;63.23
13553;BME280;6847;48.830;9.116;2024-03-25T12:09:59;96899.88;;;20.98;64.22
13553;BME280;6847;48.830;9.116;2024-03-25T12:12:44;96892.38;;;20.73;64.37
13553;BME280;6847;48.830;9.116;2024-03-25T12:15:10;96895.88;;;20.47;64.66
13553;BME280;6847;48.830;9.116;2024-03-25T12:17:35;96886.31;;;20.41;65.26
13553;BME280;6847;48.830;9.116;2024-03-25T12:20:03;96886.16;;;20.53;65.52
13553;BME280;6847;48.830;9.116;2024-03-25T12:22:31;96881.69;;;20.45;65.28
13553;BME280;6847;48.830;9.116;2024-03-25T12:24:58;96872.66;;;20.25;65.68
13553;BME280;6847;48.830;9.116;2024-03-25T12:27:24;96876.66;;;20.08;65.91
13553;BME280;6847;48.830;9.116;2024-03-25T12:29:57;96858.16;;;20.05;66.78
13553;BME280;6847;48.830;9.116;2024-03-25T12:32:30;96855.25;;;19.98;67.72
13553;BME280;6847;48.830;9.116;2024-03-25T12:34:57;96842.47;;;20.06;69.17
13553;BME280;6847;48.830;9.116;2024-03-25T12:37:23;96846.78;;;20.26;69.93
13553;BME280;6847;48.830;9.116;2024-03-25T12:39:51;96839.22;;;20.42;70.46
13553;BME280;6847;48.830;9.116;2024-03-25T12:42:18;96831.81;;;20.69;70.62
13553;BME280;6847;48.830;9.116;2024-03-25T12:44:44;96819.97;;;21.18;71.12
13553;BME280;6847;48.830;9.116;2024-03-25T12:47:10;96819.03;;;21.66;71.63
13553;BME280;6847;48.830;9.116;2024-03-25T12:49:35;96819.66;;;22.20;71.59
13553;BME280;6847;48.830;9.116;2024-03-25T12:52:01;96820.22;;;22.36;71.16
13553;BME280;6847;48.830;9.116;2024-03-25T12:54:30;96809.25;;;22.02;69.43
13553;BME280;6847;48.830;9.116;2024-03-25T12:56:59;96803.13;;;22.23;70.68
13553;BME280;6847;48.830;9.116;2024-03-25T12:59:26;96802.00;;;22.72;70.71
13553;BME280;6847;48.830;9.116;2024-03-25T13:01:52;96794.50;;;23.27;70.45
13553;BME280;6847;48.830;9.116;2024-03-25T13:04:17;96795.16;;;23.86;69.70
13553;BME280;6847;48.830;9.116;2024-03-25T13:06:43;96794.09;;;24.37;68.74
13553;BME280;6847;48.830;9.116;2024-03-25T13:09:11;96796.47;;;24.84;68.24
13553;BME280;6847;48.830;9.116;2024-03-25T13:11:38;96787.78;;;24.50;66.25
13553;BME280;6847;48.830;9.116;2024-03-25T13:14:06;96794.78;;;24.02;66.19
13553;BME280;6847;48.830;9.116;2024-03-25T13:16:31;96789.06;;;23.48;65.34
13553;BME280;6847;48.830;9.116;2024-03-25T13:18:57;96792.06;;;23.15;66.34
13553;BME280;6847;48.830;9.116;2024-03-25T13:21:22;96780.34;;;23.36;68.07
13553;BME280;6847;48.830;9.116;2024-03-25T13:23:48;96775.84;;;23.89;68.63
13553;BME280;6847;48.830;9.116;2024-03-25T13:26:14;96775.91;;;24.39;68.04
13553;BME280;6847;48.830;9.116;2024-03-25T13:28:39;96769.59;;;24.92;68.36
13553;BME280;6847;48.830;9.116;2024-03-25T13:31:13;96757.25;;;25.25;67.65
13553;BME280;6847;48.830;9.116;2024-03-25T13:33:39;96762.25;;;25.58;67.20
13553;BME280;6847;48.830;9.116;2024-03-25T13:36:05;96759.81;;;25.82;66.72
13553;BME280;6847;48.830;9.116;2024-03-25T13:38:31;96747.81;;;26.02;66.82